createdAt,value
2022-12-03T00:00:08.905Z,70
2022-12-03T00:02:05.815Z,65.3
2022-12-03T00:04:07.783Z,68
2022-12-03T00:06:09.719Z,57.8
2022-12-03T00:08:11.753Z,64
2022-12-03T00:10:16.883Z,65.9
2022-12-03T00:12:18.895Z,81.5
2022-12-03T00:14:20.891Z,69.6
2022-12-03T00:16:22.973Z,59.7
2022-12-03T00:18:24.914Z,65.6
2022-12-03T00:20:27.034Z,66.3
2022-12-03T00:22:28.931Z,73.7
2022-12-03T00:24:34.121Z,67.3
2022-12-03T00:26:36.072Z,67.4
2022-12-03T00:28:38.121Z,67.3
2022-12-03T00:30:40.176Z,63.3
2022-12-03T00:32:42.108Z,75.2
2022-12-03T00:34:44.133Z,60.8
2022-12-03T00:36:46.122Z,65
2022-12-03T00:38:51.279Z,61.3
2022-12-03T00:40:53.281Z,58.7
2022-12-03T00:42:55.318Z,57.7
2022-12-03T00:43:57.897Z,59.3
2022-12-03T00:48:01.915Z,56.7
2022-12-03T00:50:03.940Z,72.1
2022-12-03T00:52:09.115Z,59.6
2022-12-03T00:54:11.092Z,65.3
2022-12-03T00:56:13.078Z,66
2022-12-03T01:00:17.090Z,64.8
2022-12-03T01:06:26.297Z,67.8
2022-12-03T01:08:28.314Z,61.3
2022-12-03T01:10:30.303Z,61.9
2022-12-03T01:12:32.342Z,69.4
2022-12-03T01:14:34.347Z,59.3
2022-12-03T01:16:36.401Z,80.5
2022-12-03T01:18:38.346Z,65
2022-12-03T01:20:43.514Z,80.4
2022-12-03T01:22:45.536Z,72.4
2022-12-03T01:24:47.545Z,76.1
2022-12-03T01:26:49.526Z,75.3
2022-12-03T01:28:51.542Z,66.1
2022-12-03T01:30:53.666Z,68.1
2022-12-03T01:32:55.583Z,72.4
2022-12-03T01:35:00.726Z,73.5
2022-12-03T01:37:02.724Z,64.3
2022-12-03T01:39:04.730Z,69.4
2022-12-03T01:40:07.334Z,66
2022-12-03T01:42:09.353Z,67.9
2022-12-03T01:44:11.347Z,80.7
2022-12-03T01:46:13.408Z,63.6
2022-12-03T01:48:18.526Z,64.9
2022-12-03T01:50:20.546Z,54
2022-12-03T01:52:22.539Z,60.8
2022-12-03T01:54:24.559Z,67
2022-12-03T01:56:26.543Z,64.2
2022-12-03T01:58:28.585Z,70.3
2022-12-03T02:00:30.566Z,62
2022-12-03T02:10:43.806Z,61.4
2022-12-03T02:14:47.803Z,67.9
2022-12-03T02:16:53.000Z,74
2022-12-03T02:18:55.025Z,60.4
2022-12-03T02:20:57.044Z,62.2
2022-12-03T02:22:59.063Z,58.3
2022-12-03T02:27:03.100Z,65.9
2022-12-03T02:29:05.072Z,57.2
2022-12-03T02:31:10.317Z,63.2
2022-12-03T02:33:12.273Z,74
2022-12-03T02:35:14.258Z,65.3
2022-12-03T02:36:16.860Z,68.6
2022-12-03T02:38:18.851Z,61.3
2022-12-03T02:40:20.922Z,64.9
2022-12-03T02:42:22.922Z,59.6
2022-12-03T02:44:28.097Z,59.6
2022-12-03T02:46:30.113Z,59.7
2022-12-03T02:48:32.092Z,68.8
2022-12-03T02:50:34.121Z,69.9
2022-12-03T02:52:36.184Z,69.5
2022-12-03T02:54:38.144Z,62.2
2022-12-03T02:56:40.199Z,62.7
2022-12-03T02:58:45.350Z,68.8
2022-12-03T03:00:47.356Z,62.8
2022-12-03T03:02:49.382Z,77.2
2022-12-03T03:04:51.778Z,75.5
2022-12-03T03:06:53.395Z,70.3
2022-12-03T03:08:55.402Z,77.5
2022-12-03T03:10:57.432Z,81.9
2022-12-03T03:13:02.586Z,64.8
2022-12-03T03:15:04.590Z,66.8
2022-12-03T03:17:06.601Z,69.9
2022-12-03T03:19:08.646Z,56.7
2022-12-03T03:21:10.637Z,68
2022-12-03T03:23:12.665Z,62.3
2022-12-03T03:25:14.667Z,61.1
2022-12-03T03:27:19.820Z,65.9
2022-12-03T03:29:23.374Z,69.2
2022-12-03T03:31:25.450Z,67.3
2022-12-03T03:33:48.519Z,86.6
2022-12-03T03:37:52.508Z,78.4
2022-12-03T03:44:01.663Z,71.8
2022-12-03T03:46:03.838Z,73.8
2022-12-03T03:48:05.707Z,67.5
2022-12-03T03:50:07.749Z,90.2
2022-12-03T03:54:14.914Z,71.3
2022-12-03T03:56:16.930Z,84.1
2022-12-03T04:00:20.965Z,84.1
2022-12-03T04:02:22.992Z,79.3
2022-12-03T04:04:25.061Z,79.4
2022-12-03T04:06:26.991Z,82.9
2022-12-03T04:08:32.169Z,89.9
2022-12-03T04:10:34.177Z,89.3
2022-12-03T04:12:36.203Z,77.4
2022-12-03T04:14:38.210Z,67.6
2022-12-03T04:16:40.266Z,79.1
2022-12-03T04:18:42.252Z,76.8
2022-12-03T04:20:44.271Z,75.1
2022-12-03T04:22:49.430Z,88
2022-12-03T04:24:51.714Z,69.4
2022-12-03T04:26:53.455Z,93.5
2022-12-03T04:27:56.024Z,74.3
2022-12-03T04:29:58.057Z,79.1
2022-12-03T04:32:00.091Z,91
2022-12-03T04:42:13.294Z,77.7
2022-12-03T04:48:19.313Z,85
2022-12-03T04:50:24.495Z,67.9
2022-12-03T04:52:26.506Z,74.1
2022-12-03T04:54:28.495Z,66.5
2022-12-03T04:58:32.539Z,69.7
2022-12-03T05:00:34.552Z,68.4
2022-12-03T05:02:36.648Z,73.1
2022-12-03T05:04:41.715Z,68.3
2022-12-03T05:06:43.726Z,64.2
2022-12-03T05:08:45.737Z,71.4
2022-12-03T05:14:52.230Z,74.7
2022-12-03T05:16:53.875Z,66.4
2022-12-03T05:18:58.962Z,66.5
2022-12-03T05:21:00.966Z,62.1
2022-12-03T05:23:02.963Z,63.7
2022-12-03T05:26:07.577Z,58.3
2022-12-03T05:28:09.563Z,57.9
2022-12-03T05:30:11.604Z,64.5
2022-12-03T05:32:16.726Z,61
2022-12-03T05:34:18.733Z,61.1
2022-12-03T05:36:20.735Z,52.6
2022-12-03T05:38:22.774Z,76.8
2022-12-03T05:40:24.766Z,81
2022-12-03T05:42:26.795Z,66.5
2022-12-03T05:44:28.802Z,69.6
2022-12-03T05:46:34.094Z,75.9
2022-12-03T05:48:35.989Z,68.7
2022-12-03T05:50:38.049Z,56.9
2022-12-03T05:58:46.070Z,65.6
2022-12-03T06:02:53.447Z,61.9
2022-12-03T06:04:55.482Z,75.4
2022-12-03T06:06:57.270Z,74
2022-12-03T06:08:59.265Z,76.5
2022-12-03T06:13:03.315Z,85.1
2022-12-03T06:15:08.467Z,80.7
2022-12-03T06:17:10.471Z,70.9
2022-12-03T06:19:12.497Z,71
2022-12-03T06:20:15.112Z,63.2
2022-12-03T06:22:17.083Z,98.1
2022-12-03T06:24:19.105Z,125.3
2022-12-03T06:26:21.120Z,106
2022-12-03T06:28:26.282Z,82.3
2022-12-03T06:30:28.299Z,105.4
2022-12-03T06:32:30.290Z,122.1
2022-12-03T06:34:32.303Z,89.5
2022-12-03T06:36:34.333Z,114.3
2022-12-03T06:38:36.357Z,93.2
2022-12-03T06:40:38.351Z,97.1
2022-12-03T06:42:43.502Z,80
2022-12-03T06:44:45.507Z,82.3
2022-12-03T06:46:47.584Z,87
2022-12-03T06:48:49.559Z,93.3
2022-12-03T06:50:51.581Z,71.6
2022-12-03T06:52:53.627Z,93
2022-12-03T06:54:56.008Z,74.4
2022-12-03T06:57:00.738Z,92.5
2022-12-03T06:59:02.755Z,76.8
2022-12-03T07:01:04.772Z,75.2
2022-12-03T07:03:06.816Z,77.2
2022-12-03T07:05:08.784Z,81.2
2022-12-03T07:07:10.781Z,95.7
2022-12-03T07:09:12.818Z,99.4
2022-12-03T07:13:19.971Z,64.3
2022-12-03T07:15:21.974Z,66.3
2022-12-03T07:17:45.042Z,82.2
2022-12-03T07:19:47.045Z,92.3
2022-12-03T07:21:49.045Z,92.2
2022-12-03T07:23:54.214Z,101.7
2022-12-03T07:25:56.256Z,78.4
2022-12-03T07:27:58.278Z,88.1
2022-12-03T07:30:00.254Z,83.9
2022-12-03T07:32:02.311Z,87.2
2022-12-03T07:34:04.259Z,95
2022-12-03T07:36:06.269Z,90.7
2022-12-03T07:38:11.431Z,73.2
2022-12-03T07:40:13.431Z,75.3
2022-12-03T07:42:15.478Z,80
2022-12-03T07:44:17.445Z,79.4
2022-12-03T07:46:19.474Z,82.7
2022-12-03T07:48:21.523Z,66.9
2022-12-03T07:50:23.485Z,66.4
2022-12-03T07:52:28.615Z,80.9
2022-12-03T07:54:30.633Z,87
2022-12-03T07:56:32.649Z,77.9
2022-12-03T07:58:34.659Z,80.9
2022-12-03T08:00:36.670Z,94
2022-12-03T08:02:38.694Z,96
2022-12-03T08:04:40.661Z,77
2022-12-03T08:06:45.818Z,92.3
2022-12-03T08:08:47.813Z,90.7
2022-12-03T08:10:49.834Z,94.7
2022-12-03T08:11:52.396Z,88.6
2022-12-03T08:15:56.473Z,89.6
2022-12-03T08:17:58.402Z,73.2
2022-12-03T08:20:03.565Z,82.4
2022-12-03T08:22:05.546Z,83.3
2022-12-03T08:24:07.539Z,83.3
2022-12-03T08:26:09.552Z,77.4
2022-12-03T08:28:11.530Z,95.1
2022-12-03T08:30:13.550Z,90.7
2022-12-03T08:32:15.659Z,85.3
2022-12-03T08:34:20.687Z,95
2022-12-03T08:36:22.729Z,94.9
2022-12-03T08:38:24.708Z,79.1
2022-12-03T08:40:26.689Z,83.9
2022-12-03T08:42:28.699Z,102.4
2022-12-03T08:44:30.697Z,80.1
2022-12-03T08:46:32.697Z,91.4
2022-12-03T08:48:40.785Z,88.7
2022-12-03T08:50:40.804Z,76.6
2022-12-03T08:52:42.792Z,92.8
2022-12-03T08:54:44.794Z,81.2
2022-12-03T08:56:46.816Z,78.9
2022-12-03T08:58:48.997Z,91.4
2022-12-03T09:00:50.879Z,95.3
2022-12-03T09:02:55.937Z,67.2
2022-12-03T09:04:57.941Z,73.9
2022-12-03T09:06:59.945Z,70.2
2022-12-03T09:08:02.594Z,66.7
2022-12-03T09:10:04.532Z,65.6
2022-12-03T09:12:06.518Z,83.2
2022-12-03T09:14:11.434Z,75.1
2022-12-03T09:16:13.740Z,80.7
2022-12-03T09:18:15.695Z,84.2
2022-12-03T09:20:19.202Z,67.6
2022-12-03T09:24:23.166Z,57.1
2022-12-03T09:26:25.163Z,76.9
2022-12-03T09:30:32.297Z,60.8
2022-12-03T09:32:34.338Z,75.3
2022-12-03T09:34:36.282Z,66.4
2022-12-03T09:36:38.262Z,69.8
2022-12-03T09:38:45.999Z,65.7
2022-12-03T09:40:42.308Z,75.2
2022-12-03T09:42:44.279Z,67.1
2022-12-03T09:44:49.441Z,71.1
2022-12-03T09:46:51.436Z,71.3
2022-12-03T09:48:53.415Z,97.2
2022-12-03T09:50:55.403Z,64.8
2022-12-03T09:52:57.380Z,87.6
2022-12-03T09:54:59.407Z,57.1
2022-12-03T09:59:06.532Z,71.3
2022-12-03T10:03:10.516Z,98.2
2022-12-03T10:04:13.231Z,68.9
2022-12-03T10:06:15.108Z,71.9
2022-12-03T10:08:17.104Z,77.5
2022-12-03T10:10:19.163Z,88.7
2022-12-03T10:14:26.224Z,79
2022-12-03T10:24:36.188Z,69.7
2022-12-03T10:26:41.334Z,81.4
2022-12-03T10:30:45.362Z,79.9
2022-12-03T10:32:47.324Z,68.4
2022-12-03T10:43:00.503Z,58.1
2022-12-03T10:45:02.453Z,57.8
2022-12-03T10:49:06.447Z,63
2022-12-03T10:51:08.435Z,60.4
2022-12-03T10:55:15.553Z,62.9
2022-12-03T10:59:19.541Z,53.6
2022-12-03T11:05:45.530Z,72.5
2022-12-03T11:07:50.816Z,67.4
2022-12-03T11:09:52.653Z,90.9
2022-12-03T11:11:54.678Z,85.6
2022-12-03T11:13:56.662Z,72.1
2022-12-03T11:18:00.645Z,61.7
2022-12-03T11:20:02.676Z,60.7
2022-12-03T11:22:07.806Z,54.6
2022-12-03T11:24:09.783Z,65.9
2022-12-03T11:26:17.088Z,65.2
2022-12-03T11:28:13.770Z,77.5
2022-12-03T11:30:15.766Z,49.5
2022-12-03T11:32:17.760Z,66.7
2022-12-03T11:34:19.814Z,71.3
2022-12-03T11:36:47.666Z,75
2022-12-03T11:38:26.903Z,73.3
2022-12-03T11:40:28.877Z,67.5
2022-12-03T11:42:30.875Z,73.7
2022-12-03T11:44:32.919Z,82.9
2022-12-03T11:48:36.841Z,87.7
2022-12-03T11:50:42.001Z,69.6
2022-12-03T11:52:44.005Z,95.2
2022-12-03T11:54:45.979Z,76
2022-12-03T12:01:54.517Z,89.2
2022-12-03T12:06:01.656Z,93.5
2022-12-03T12:08:03.681Z,116.5
2022-12-03T12:10:05.654Z,123.4
2022-12-03T12:12:07.636Z,104.3
2022-12-03T12:14:09.626Z,110.7
2022-12-03T12:16:11.688Z,105.4
2022-12-03T12:18:16.776Z,143.9
2022-12-03T12:20:18.779Z,111.8
2022-12-03T12:22:20.758Z,115.1
2022-12-03T12:24:22.725Z,107.8
2022-12-03T12:26:24.714Z,108.9
2022-12-03T12:28:26.705Z,139.1
2022-12-03T12:30:28.699Z,120.5
2022-12-03T12:32:33.817Z,116.9
2022-12-03T12:34:35.795Z,101.2
2022-12-03T12:36:37.779Z,107.6
2022-12-03T12:38:39.773Z,105.9
2022-12-03T12:40:41.945Z,102.7
2022-12-03T12:42:43.752Z,92.8
2022-12-03T12:44:45.714Z,96
2022-12-03T12:46:50.986Z,102.3
2022-12-03T12:48:57.944Z,84.7
2022-12-03T12:51:57.407Z,94.7
2022-12-03T12:53:59.327Z,88.7
2022-12-03T12:56:01.319Z,71.1
2022-12-03T12:58:03.303Z,108.7
2022-12-03T13:00:08.449Z,78.7
2022-12-03T13:02:10.502Z,62.4
2022-12-03T13:04:12.396Z,73.4
2022-12-03T13:06:14.413Z,58
2022-12-03T13:08:16.433Z,58.5
2022-12-03T13:10:18.358Z,72.2
2022-12-03T13:12:20.320Z,78.6
2022-12-03T13:14:25.461Z,66.4
2022-12-03T13:16:27.768Z,58.8
2022-12-03T13:18:29.427Z,62.2
2022-12-03T13:20:31.429Z,72.8
2022-12-03T13:22:33.372Z,55.4
2022-12-03T13:24:35.366Z,50.9
2022-12-03T13:26:39.279Z,63.2
2022-12-03T13:30:44.488Z,67.6
2022-12-03T13:32:46.452Z,65
2022-12-03T13:34:48.423Z,61.9
2022-12-03T13:36:57.117Z,62.9
2022-12-03T13:38:52.421Z,59.4
2022-12-03T13:40:54.399Z,64.5
2022-12-03T13:42:59.560Z,57.5
2022-12-03T13:45:01.500Z,57.6
2022-12-03T13:48:06.896Z,56.5
2022-12-03T13:50:08.924Z,63.6
2022-12-03T13:52:10.851Z,67.1
2022-12-03T13:54:15.867Z,67.8
2022-12-03T13:58:19.975Z,76.5
2022-12-03T14:04:25.930Z,69.4
2022-12-03T14:06:27.954Z,76.5
2022-12-03T14:12:37.050Z,92
2022-12-03T14:14:39.031Z,91.5
2022-12-03T14:16:41.105Z,85.9
2022-12-03T14:18:43.064Z,110.7
2022-12-03T14:20:45.037Z,89
2022-12-03T14:22:46.986Z,101.8
2022-12-03T14:24:52.133Z,92.2
2022-12-03T14:26:54.133Z,110
2022-12-03T14:28:56.081Z,104.9
2022-12-03T14:30:58.052Z,112.2
2022-12-03T14:33:00.039Z,95.9
2022-12-03T14:35:08.152Z,103.3
2022-12-03T14:39:09.261Z,127.7
2022-12-03T14:41:11.110Z,126.4
2022-12-03T14:43:13.097Z,113.4
2022-12-03T14:45:29.997Z,109.5
2022-12-03T14:47:31.831Z,133.4
2022-12-03T14:49:33.839Z,105.5
2022-12-03T14:51:38.941Z,122.5
2022-12-03T14:53:40.916Z,124.5
2022-12-03T14:55:42.904Z,130.9
2022-12-03T14:57:44.891Z,115.2
2022-12-03T14:59:46.902Z,110.2
2022-12-03T15:01:48.930Z,128.7
2022-12-03T15:03:50.827Z,110.1
2022-12-03T15:05:55.997Z,131.4
2022-12-03T15:07:58.109Z,95.2
2022-12-03T15:09:59.906Z,96.9
2022-12-03T15:12:03.416Z,111.7
2022-12-03T15:14:05.344Z,98.5
2022-12-03T15:16:07.327Z,114.3
2022-12-03T15:18:09.286Z,113.2
2022-12-03T15:20:14.448Z,130.4
2022-12-03T15:22:16.389Z,134.6
2022-12-03T15:24:18.316Z,115.4
2022-12-03T15:26:20.322Z,103
2022-12-03T15:28:22.298Z,113.8
2022-12-03T15:30:24.240Z,119
2022-12-03T15:32:26.204Z,97.9
2022-12-03T15:34:31.337Z,116.1
2022-12-03T15:36:33.305Z,107.5
2022-12-03T15:38:35.277Z,110.1
2022-12-03T15:39:37.859Z,112
2022-12-03T15:41:39.813Z,129.1
2022-12-03T15:43:41.792Z,126.4
2022-12-03T15:45:43.818Z,117.5
2022-12-03T16:04:07.815Z,92.7
2022-12-03T16:08:11.789Z,118.6
2022-12-03T16:10:13.721Z,110.8
2022-12-03T16:12:15.684Z,127.3
2022-12-03T16:16:22.859Z,101.3
2022-12-03T16:18:24.768Z,106.8
2022-12-03T16:20:26.728Z,98.2
2022-12-03T16:22:28.711Z,99.5
2022-12-03T16:24:30.699Z,122
2022-12-03T16:30:39.884Z,116
2022-12-03T16:32:41.758Z,120.6
2022-12-03T16:34:43.740Z,99.8
2022-12-03T16:35:46.289Z,108.1
2022-12-03T16:37:48.283Z,103
2022-12-03T16:39:50.234Z,100.1
2022-12-03T16:41:52.207Z,107.1
2022-12-03T16:43:57.329Z,105.8
2022-12-03T16:48:01.288Z,107.9
2022-12-03T16:50:03.271Z,123.3
2022-12-03T16:52:05.219Z,115.2
2022-12-03T16:54:07.184Z,105.4
2022-12-03T16:56:09.164Z,115
2022-12-03T16:58:14.310Z,112.9
2022-12-03T17:00:16.300Z,114.8
2022-12-03T17:02:18.276Z,121.3
2022-12-03T17:04:20.220Z,110
2022-12-03T17:06:22.210Z,100.2
2022-12-03T17:08:24.154Z,108.7
2022-12-03T17:13:00.675Z,107
2022-12-03T17:20:39.139Z,114.8
2022-12-03T17:22:41.120Z,93.7
2022-12-03T17:24:43.107Z,97.7
2022-12-03T17:26:49.245Z,112.8
2022-12-03T17:28:51.207Z,100.3
2022-12-03T17:30:53.266Z,101.8
2022-12-03T17:31:55.804Z,141.7
2022-12-03T17:33:57.717Z,101.4
2022-12-03T17:35:59.694Z,95.6
2022-12-03T17:38:01.685Z,89.8
2022-12-03T17:40:06.787Z,99.3
2022-12-03T17:42:08.769Z,82.8
2022-12-03T17:44:12.965Z,94.2
2022-12-03T17:46:12.804Z,88
2022-12-03T17:48:14.730Z,91.9
2022-12-03T17:50:16.724Z,93.3
2022-12-03T17:52:18.666Z,89.2
2022-12-03T17:54:23.804Z,100.6
2022-12-03T17:56:25.793Z,92.4
2022-12-03T17:58:27.758Z,96.5
2022-12-03T18:00:29.740Z,96.6
2022-12-03T18:02:31.700Z,103.5
2022-12-03T18:04:33.679Z,95.4
2022-12-03T18:06:35.660Z,109.2
2022-12-03T18:10:42.783Z,81.8
2022-12-03T18:12:44.719Z,87.1
2022-12-03T18:16:48.671Z,75.3
2022-12-03T18:22:57.790Z,97.8
2022-12-03T18:24:59.727Z,91
2022-12-03T18:27:01.689Z,116.6
2022-12-03T18:33:28.465Z,111.1
2022-12-03T18:35:33.607Z,85.6
2022-12-03T18:41:39.498Z,94.4
2022-12-03T18:45:43.418Z,83.7
2022-12-03T18:47:45.478Z,89.4
2022-12-03T18:51:59.085Z,76.6
2022-12-03T18:53:54.356Z,71.1
2022-12-03T18:55:56.340Z,82.2
2022-12-03T18:57:58.305Z,92.4
2022-12-03T19:00:00.296Z,92.6
2022-12-03T19:02:02.310Z,95.9
2022-12-03T19:04:07.380Z,95.8
2022-12-03T19:06:11.851Z,88.6
2022-12-03T19:08:11.422Z,97
2022-12-03T19:10:13.280Z,81.8
2022-12-03T19:12:15.269Z,94.3
2022-12-03T19:14:17.249Z,104.3
2022-12-03T19:16:19.330Z,91.5
2022-12-03T19:18:24.320Z,87.9
2022-12-03T19:20:26.321Z,79.5
2022-12-03T19:22:28.290Z,90.8
2022-12-03T19:23:30.872Z,82.9
2022-12-03T19:25:32.826Z,78.3
2022-12-03T19:27:34.793Z,84.1
2022-12-03T19:29:36.782Z,84.7
2022-12-03T19:31:42.075Z,80.5
2022-12-03T19:33:43.908Z,103.2
2022-12-03T19:35:45.828Z,93.4
2022-12-03T19:37:47.877Z,108.3
2022-12-03T19:39:49.775Z,91.6
2022-12-03T19:41:51.821Z,87.2
2022-12-03T19:43:53.794Z,104.4
2022-12-03T19:45:59.012Z,94.9
2022-12-03T19:50:02.858Z,89
2022-12-03T19:56:08.783Z,88.7
2022-12-03T19:58:10.756Z,91.5
2022-12-03T20:00:15.900Z,94.1
2022-12-03T20:02:18.070Z,99.6
2022-12-03T20:04:19.809Z,90
2022-12-03T20:06:21.819Z,100.4
2022-12-03T20:08:23.801Z,88.7
2022-12-03T20:10:25.804Z,92.9
2022-12-03T20:12:27.754Z,91.8
2022-12-03T20:14:32.854Z,95.9
2022-12-03T20:16:34.909Z,93.8
2022-12-03T20:18:36.805Z,98.7
2022-12-03T20:19:39.386Z,101.1
2022-12-03T20:21:41.321Z,91.5
2022-12-03T20:23:43.286Z,85.6
2022-12-03T20:25:45.285Z,91
2022-12-03T20:27:50.364Z,92.8
2022-12-03T20:29:52.882Z,98
2022-12-03T20:31:54.422Z,93.2
2022-12-03T20:33:56.317Z,109
2022-12-03T20:35:58.283Z,95.4
2022-12-03T20:38:00.241Z,85.6
2022-12-03T20:40:02.215Z,79.1
2022-12-03T20:42:07.338Z,83
2022-12-03T20:44:09.290Z,112.7
2022-12-03T20:46:11.323Z,81.1
2022-12-03T20:48:13.220Z,116.1
2022-12-03T20:50:15.197Z,129.7
2022-12-03T20:54:19.132Z,97.9
2022-12-03T21:00:28.188Z,97
2022-12-03T21:12:44.649Z,101.6
2022-12-03T21:14:46.627Z,109.6
2022-12-03T21:15:49.191Z,96.3
2022-12-03T21:17:51.211Z,93.5
2022-12-03T21:19:53.545Z,94.8
2022-12-03T21:21:55.091Z,112.3
2022-12-03T21:24:00.234Z,105.1
2022-12-03T21:28:04.124Z,100.3
2022-12-03T21:30:06.098Z,92.1
2022-12-03T21:32:08.033Z,115.6
2022-12-03T21:34:10.013Z,101.4
2022-12-03T21:36:12.004Z,107.4
2022-12-03T21:40:19.068Z,107.7
2022-12-03T21:42:36.540Z,111
2022-12-03T21:44:22.983Z,107.6
2022-12-03T21:47:12.463Z,98.6
2022-12-03T21:48:26.893Z,114.2
2022-12-03T21:50:28.846Z,122
2022-12-03T21:52:33.958Z,114.6
2022-12-03T21:54:35.938Z,120.9
2022-12-03T21:56:37.931Z,112.2
2022-12-03T21:58:39.882Z,103.8
2022-12-03T22:00:41.824Z,110.9
2022-12-03T22:02:43.849Z,105.4
2022-12-03T22:04:45.721Z,110.1
2022-12-03T22:06:50.848Z,103.3
2022-12-03T22:08:52.787Z,111.7
2022-12-03T22:10:54.810Z,125.9
2022-12-03T22:13:17.739Z,113.6
2022-12-03T22:15:19.834Z,110
2022-12-03T22:17:21.694Z,111.7
2022-12-03T22:19:26.791Z,98.4
2022-12-03T22:21:28.744Z,115.9
2022-12-03T22:23:30.685Z,112.2
2022-12-03T22:25:32.675Z,104.5
2022-12-03T22:27:34.672Z,119.8
2022-12-03T22:29:36.611Z,109.9
2022-12-03T22:31:38.581Z,111.3
2022-12-03T22:33:43.693Z,125.2
2022-12-03T22:35:45.663Z,122.3
2022-12-03T22:37:47.632Z,119.6
2022-12-03T22:39:49.576Z,108.8
2022-12-03T22:48:00.579Z,108.9
2022-12-03T22:50:02.525Z,110
2022-12-03T22:52:04.507Z,120.8
2022-12-03T22:54:06.463Z,107.5
2022-12-03T22:56:08.458Z,123.6
2022-12-03T22:58:10.415Z,99
2022-12-03T23:00:12.402Z,115.4
2022-12-03T23:02:17.548Z,109.2
2022-12-03T23:04:19.536Z,122.4
2022-12-03T23:06:21.436Z,108.4
2022-12-03T23:07:23.993Z,106.7
2022-12-03T23:09:26.031Z,110.8
2022-12-03T23:11:27.939Z,106.1
2022-12-03T23:13:29.879Z,117.8
2022-12-03T23:15:35.057Z,125.7
2022-12-03T23:17:36.984Z,128.2
2022-12-03T23:19:38.991Z,113.1
2022-12-03T23:21:40.914Z,103
2022-12-03T23:23:42.887Z,119.4
2022-12-03T23:25:44.873Z,117.7
2022-12-03T23:29:52.095Z,126.1
2022-12-03T23:31:53.902Z,115.1
2022-12-03T23:33:55.990Z,115.4
2022-12-03T23:35:57.839Z,125.3
2022-12-03T23:37:59.815Z,113.3
2022-12-03T23:40:01.765Z,103.7
2022-12-03T23:42:03.710Z,116.4
2022-12-03T23:44:08.845Z,102.4
2022-12-03T23:46:10.902Z,127.4
2022-12-03T23:48:12.767Z,114.7
2022-12-03T23:50:14.717Z,129.5
2022-12-03T23:52:16.686Z,111.7
2022-12-03T23:54:18.662Z,126.7
2022-12-03T23:56:20.619Z,124.7
2022-12-03T23:58:25.740Z,115.5
